sensor_id;sensor_type;location;lat;lon;timestamp;P1;durP1;ratioP1;P2;durP2;ratioP2
3757;SDS011;1894;51.038;13.692;2022-09-03T00:02:32;2.47;;;1.50;;
3757;SDS011;1894;51.038;13.692;2022-09-03T00:05:22;4.60;;;1.80;;
3757;SDS011;1894;51.038;13.692;2022-09-03T00:10:58;10.43;;;2.30;;
3757;SDS011;1894;51.038;13.692;2022-09-03T00:13:49;2.07;;;1.50;;
3757;SDS011;1894;51.038;13.692;2022-09-03T00:16:49;2.47;;;1.30;;
3757;SDS011;1894;51.038;13.692;2022-09-03T00:19:24;2.53;;;1.67;;
3757;SDS011;1894;51.038;13.692;2022-09-03T00:22:08;4.27;;;2.10;;
3757;SDS011;1894;51.038;13.692;2022-09-03T00:24:40;2.30;;;1.53;;
3757;SDS011;1894;51.038;13.692;2022-09-03T00:27:23;1.50;;;1.40;;
3757;SDS011;1894;51.038;13.692;2022-09-03T00:29:56;2.80;;;1.50;;
3757;SDS011;1894;51.038;13.692;2022-09-03T00:32:47;3.47;;;1.80;;
3757;SDS011;1894;51.038;13.692;2022-09-03T00:35:44;3.20;;;1.60;;
3757;SDS011;1894;51.038;13.692;2022-09-03T00:38:17;2.07;;;1.73;;
3757;SDS011;1894;51.038;13.692;2022-09-03T00:46:25;4.73;;;2.20;;
3757;SDS011;1894;51.038;13.692;2022-09-03T00:49:16;2.50;;;1.40;;
3757;SDS011;1894;51.038;13.692;2022-09-03T01:00:14;5.50;;;3.20;;
3757;SDS011;1894;51.038;13.692;2022-09-03T01:11:53;4.73;;;2.30;;
3757;SDS011;1894;51.038;13.692;2022-09-03T01:17:35;5.93;;;2.47;;
3757;SDS011;1894;51.038;13.692;2022-09-03T01:20:45;6.10;;;2.30;;
3757;SDS011;1894;51.038;13.692;2022-09-03T01:24:05;4.00;;;1.50;;
3757;SDS011;1894;51.038;13.692;2022-09-03T01:26:47;2.47;;;1.87;;
3757;SDS011;1894;51.038;13.692;2022-09-03T01:30:19;3.07;;;1.50;;
3757;SDS011;1894;51.038;13.692;2022-09-03T01:33:51;4.13;;;1.80;;
3757;SDS011;1894;51.038;13.692;2022-09-03T01:39:01;4.23;;;1.57;;
3757;SDS011;1894;51.038;13.692;2022-09-03T01:53:18;3.70;;;2.20;;
3757;SDS011;1894;51.038;13.692;2022-09-03T01:59:14;3.57;;;1.93;;
3757;SDS011;1894;51.038;13.692;2022-09-03T02:01:54;3.27;;;2.60;;
3757;SDS011;1894;51.038;13.692;2022-09-03T02:05:06;2.23;;;1.77;;
3757;SDS011;1894;51.038;13.692;2022-09-03T02:07:36;4.97;;;2.13;;
3757;SDS011;1894;51.038;13.692;2022-09-03T02:10:19;3.53;;;1.70;;
3757;SDS011;1894;51.038;13.692;2022-09-03T02:15:48;4.30;;;1.30;;
3757;SDS011;1894;51.038;13.692;2022-09-03T02:18:22;2.67;;;1.77;;
3757;SDS011;1894;51.038;13.692;2022-09-03T02:21:04;3.53;;;1.87;;
3757;SDS011;1894;51.038;13.692;2022-09-03T02:23:32;1.33;;;1.20;;
3757;SDS011;1894;51.038;13.692;2022-09-03T02:26:01;1.93;;;1.83;;
3757;SDS011;1894;51.038;13.692;2022-09-03T02:28:29;5.57;;;2.37;;
3757;SDS011;1894;51.038;13.692;2022-09-03T02:30:58;3.90;;;2.00;;
3757;SDS011;1894;51.038;13.692;2022-09-03T02:33:26;5.43;;;2.23;;
3757;SDS011;1894;51.038;13.692;2022-09-03T02:35:53;2.37;;;2.00;;
3757;SDS011;1894;51.038;13.692;2022-09-03T02:38:23;5.60;;;2.57;;
3757;SDS011;1894;51.038;13.692;2022-09-03T02:40:52;5.53;;;1.83;;
3757;SDS011;1894;51.038;13.692;2022-09-03T02:43:29;2.07;;;1.87;;
3757;SDS011;1894;51.038;13.692;2022-09-03T02:46:04;3.70;;;1.60;;
3757;SDS011;1894;51.038;13.692;2022-09-03T02:48:38;3.10;;;1.83;;
3757;SDS011;1894;51.038;13.692;2022-09-03T02:51:05;4.13;;;1.87;;
3757;SDS011;1894;51.038;13.692;2022-09-03T02:53:40;4.90;;;1.63;;
3757;SDS011;1894;51.038;13.692;2022-09-03T02:56:08;2.03;;;1.53;;
3757;SDS011;1894;51.038;13.692;2022-09-03T02:58:35;3.13;;;1.83;;
3757;SDS011;1894;51.038;13.692;2022-09-03T03:01:03;3.40;;;2.20;;
3757;SDS011;1894;51.038;13.692;2022-09-03T03:03:30;3.80;;;1.60;;
3757;SDS011;1894;51.038;13.692;2022-09-03T03:05:59;3.20;;;2.27;;
3757;SDS011;1894;51.038;13.692;2022-09-03T03:08:29;4.80;;;1.83;;
3757;SDS011;1894;51.038;13.692;2022-09-03T03:10:59;2.03;;;1.67;;
3757;SDS011;1894;51.038;13.692;2022-09-03T03:13:27;3.90;;;1.40;;
3757;SDS011;1894;51.038;13.692;2022-09-03T03:15:57;2.07;;;1.67;;
3757;SDS011;1894;51.038;13.692;2022-09-03T03:18:28;2.20;;;1.70;;
3757;SDS011;1894;51.038;13.692;2022-09-03T03:20:55;2.30;;;1.87;;
3757;SDS011;1894;51.038;13.692;2022-09-03T03:23:23;6.60;;;2.10;;
3757;SDS011;1894;51.038;13.692;2022-09-03T03:25:50;5.50;;;2.10;;
3757;SDS011;1894;51.038;13.692;2022-09-03T03:28:17;3.63;;;2.07;;
3757;SDS011;1894;51.038;13.692;2022-09-03T03:30:46;4.00;;;1.80;;
3757;SDS011;1894;51.038;13.692;2022-09-03T03:33:14;3.93;;;2.00;;
3757;SDS011;1894;51.038;13.692;2022-09-03T03:35:41;4.40;;;1.97;;
3757;SDS011;1894;51.038;13.692;2022-09-03T03:38:09;3.00;;;1.93;;
3757;SDS011;1894;51.038;13.692;2022-09-03T03:40:37;1.80;;;1.70;;
3757;SDS011;1894;51.038;13.692;2022-09-03T03:43:05;3.10;;;2.17;;
3757;SDS011;1894;51.038;13.692;2022-09-03T03:45:32;2.40;;;1.77;;
3757;SDS011;1894;51.038;13.692;2022-09-03T03:47:59;4.50;;;2.10;;
3757;SDS011;1894;51.038;13.692;2022-09-03T03:50:26;4.00;;;2.27;;
3757;SDS011;1894;51.038;13.692;2022-09-03T03:52:53;2.60;;;2.40;;
3757;SDS011;1894;51.038;13.692;2022-09-03T03:55:21;2.30;;;2.03;;
3757;SDS011;1894;51.038;13.692;2022-09-03T03:57:52;2.93;;;2.23;;
3757;SDS011;1894;51.038;13.692;2022-09-03T04:00:19;2.23;;;1.90;;
3757;SDS011;1894;51.038;13.692;2022-09-03T04:02:50;2.20;;;1.90;;
3757;SDS011;1894;51.038;13.692;2022-09-03T04:05:17;2.63;;;2.43;;
3757;SDS011;1894;51.038;13.692;2022-09-03T04:07:48;5.83;;;1.67;;
3757;SDS011;1894;51.038;13.692;2022-09-03T04:10:15;2.87;;;2.13;;
3757;SDS011;1894;51.038;13.692;2022-09-03T04:12:42;4.50;;;1.83;;
3757;SDS011;1894;51.038;13.692;2022-09-03T04:15:09;4.67;;;1.80;;
3757;SDS011;1894;51.038;13.692;2022-09-03T04:17:37;5.50;;;2.60;;
3757;SDS011;1894;51.038;13.692;2022-09-03T04:20:05;3.27;;;1.97;;
3757;SDS011;1894;51.038;13.692;2022-09-03T04:22:32;3.20;;;2.33;;
3757;SDS011;1894;51.038;13.692;2022-09-03T04:24:59;4.07;;;2.40;;
3757;SDS011;1894;51.038;13.692;2022-09-03T04:27:27;2.70;;;2.00;;
3757;SDS011;1894;51.038;13.692;2022-09-03T04:29:54;8.93;;;2.67;;
3757;SDS011;1894;51.038;13.692;2022-09-03T04:32:21;6.53;;;2.37;;
3757;SDS011;1894;51.038;13.692;2022-09-03T04:35:07;2.33;;;1.90;;
3757;SDS011;1894;51.038;13.692;2022-09-03T04:37:35;4.80;;;3.07;;
3757;SDS011;1894;51.038;13.692;2022-09-03T04:40:02;4.27;;;2.30;;
3757;SDS011;1894;51.038;13.692;2022-09-03T04:42:30;4.43;;;2.20;;
3757;SDS011;1894;51.038;13.692;2022-09-03T04:44:58;4.47;;;2.17;;
3757;SDS011;1894;51.038;13.692;2022-09-03T04:47:26;7.70;;;2.60;;
3757;SDS011;1894;51.038;13.692;2022-09-03T04:49:53;7.10;;;2.47;;
3757;SDS011;1894;51.038;13.692;2022-09-03T04:52:21;3.90;;;2.87;;
3757;SDS011;1894;51.038;13.692;2022-09-03T04:54:48;2.47;;;2.27;;
3757;SDS011;1894;51.038;13.692;2022-09-03T04:57:15;3.23;;;1.93;;
3757;SDS011;1894;51.038;13.692;2022-09-03T04:59:43;2.43;;;2.13;;
3757;SDS011;1894;51.038;13.692;2022-09-03T05:02:10;3.20;;;2.50;;
3757;SDS011;1894;51.038;13.692;2022-09-03T05:04:38;4.17;;;2.17;;
3757;SDS011;1894;51.038;13.692;2022-09-03T05:07:05;2.50;;;2.30;;
3757;SDS011;1894;51.038;13.692;2022-09-03T05:09:32;3.33;;;2.23;;
3757;SDS011;1894;51.038;13.692;2022-09-03T05:12:00;2.93;;;2.37;;
3757;SDS011;1894;51.038;13.692;2022-09-03T05:14:27;1.83;;;1.70;;
3757;SDS011;1894;51.038;13.692;2022-09-03T05:16:54;8.00;;;1.93;;
3757;SDS011;1894;51.038;13.692;2022-09-03T05:19:22;5.33;;;2.10;;
3757;SDS011;1894;51.038;13.692;2022-09-03T05:21:49;4.17;;;2.13;;
3757;SDS011;1894;51.038;13.692;2022-09-03T05:24:16;4.70;;;2.63;;
3757;SDS011;1894;51.038;13.692;2022-09-03T05:26:44;7.57;;;2.70;;
3757;SDS011;1894;51.038;13.692;2022-09-03T05:29:11;4.50;;;1.93;;
3757;SDS011;1894;51.038;13.692;2022-09-03T05:31:38;12.33;;;2.77;;
3757;SDS011;1894;51.038;13.692;2022-09-03T05:34:06;3.00;;;2.17;;
3757;SDS011;1894;51.038;13.692;2022-09-03T05:36:39;6.13;;;2.40;;
3757;SDS011;1894;51.038;13.692;2022-09-03T05:39:06;2.60;;;2.00;;
3757;SDS011;1894;51.038;13.692;2022-09-03T05:41:33;11.63;;;2.00;;
3757;SDS011;1894;51.038;13.692;2022-09-03T05:44:01;2.90;;;2.10;;
3757;SDS011;1894;51.038;13.692;2022-09-03T05:46:30;2.73;;;1.60;;
3757;SDS011;1894;51.038;13.692;2022-09-03T05:49:00;4.57;;;1.97;;
3757;SDS011;1894;51.038;13.692;2022-09-03T05:51:29;3.97;;;1.87;;
3757;SDS011;1894;51.038;13.692;2022-09-03T05:53:58;6.73;;;2.50;;
3757;SDS011;1894;51.038;13.692;2022-09-03T05:56:26;5.17;;;1.97;;
3757;SDS011;1894;51.038;13.692;2022-09-03T05:58:56;1.73;;;1.50;;
3757;SDS011;1894;51.038;13.692;2022-09-03T06:01:31;3.47;;;1.67;;
3757;SDS011;1894;51.038;13.692;2022-09-03T06:04:09;5.00;;;2.03;;
3757;SDS011;1894;51.038;13.692;2022-09-03T06:06:40;2.30;;;1.93;;
3757;SDS011;1894;51.038;13.692;2022-09-03T06:09:13;2.10;;;1.77;;
3757;SDS011;1894;51.038;13.692;2022-09-03T06:11:44;2.50;;;2.10;;
3757;SDS011;1894;51.038;13.692;2022-09-03T06:14:13;2.90;;;2.10;;
3757;SDS011;1894;51.038;13.692;2022-09-03T06:16:42;2.07;;;1.63;;
3757;SDS011;1894;51.038;13.692;2022-09-03T06:19:14;3.70;;;1.90;;
3757;SDS011;1894;51.038;13.692;2022-09-03T06:21:43;4.27;;;2.63;;
3757;SDS011;1894;51.038;13.692;2022-09-03T06:24:15;3.03;;;2.27;;
3757;SDS011;1894;51.038;13.692;2022-09-03T06:26:46;3.23;;;2.00;;
3757;SDS011;1894;51.038;13.692;2022-09-03T06:29:13;3.20;;;1.87;;
3757;SDS011;1894;51.038;13.692;2022-09-03T06:31:41;3.43;;;1.70;;
3757;SDS011;1894;51.038;13.692;2022-09-03T06:34:09;2.40;;;1.40;;
3757;SDS011;1894;51.038;13.692;2022-09-03T06:36:37;2.53;;;1.30;;
3757;SDS011;1894;51.038;13.692;2022-09-03T06:39:06;2.30;;;1.47;;
3757;SDS011;1894;51.038;13.692;2022-09-03T06:41:34;2.80;;;1.70;;
3757;SDS011;1894;51.038;13.692;2022-09-03T06:44:02;2.23;;;1.53;;
3757;SDS011;1894;51.038;13.692;2022-09-03T06:46:33;4.10;;;1.63;;
3757;SDS011;1894;51.038;13.692;2022-09-03T06:49:01;3.37;;;1.67;;
3757;SDS011;1894;51.038;13.692;2022-09-03T06:51:29;4.13;;;1.57;;
3757;SDS011;1894;51.038;13.692;2022-09-03T06:54:02;3.20;;;1.20;;
3757;SDS011;1894;51.038;13.692;2022-09-03T06:56:34;2.70;;;1.30;;
3757;SDS011;1894;51.038;13.692;2022-09-03T06:59:07;1.80;;;1.23;;
3757;SDS011;1894;51.038;13.692;2022-09-03T07:01:39;1.53;;;1.00;;
3757;SDS011;1894;51.038;13.692;2022-09-03T07:04:11;3.37;;;1.17;;
3757;SDS011;1894;51.038;13.692;2022-09-03T07:06:45;3.97;;;1.40;;
3757;SDS011;1894;51.038;13.692;2022-09-03T07:09:13;2.20;;;1.20;;
3757;SDS011;1894;51.038;13.692;2022-09-03T07:11:43;6.63;;;1.77;;
3757;SDS011;1894;51.038;13.692;2022-09-03T07:14:15;6.30;;;2.10;;
3757;SDS011;1894;51.038;13.692;2022-09-03T07:16:46;7.70;;;1.30;;
3757;SDS011;1894;51.038;13.692;2022-09-03T07:19:15;2.03;;;1.00;;
3757;SDS011;1894;51.038;13.692;2022-09-03T07:21:43;1.17;;;0.97;;
3757;SDS011;1894;51.038;13.692;2022-09-03T07:24:15;1.60;;;1.27;;
3757;SDS011;1894;51.038;13.692;2022-09-03T07:26:44;3.90;;;1.17;;
3757;SDS011;1894;51.038;13.692;2022-09-03T07:29:14;2.80;;;1.30;;
3757;SDS011;1894;51.038;13.692;2022-09-03T07:31:46;2.07;;;1.00;;
3757;SDS011;1894;51.038;13.692;2022-09-03T07:34:17;7.17;;;1.57;;
3757;SDS011;1894;51.038;13.692;2022-09-03T07:36:47;2.80;;;1.30;;
3757;SDS011;1894;51.038;13.692;2022-09-03T07:39:17;5.23;;;1.23;;
3757;SDS011;1894;51.038;13.692;2022-09-03T07:41:44;1.93;;;1.00;;
3757;SDS011;1894;51.038;13.692;2022-09-03T07:44:13;3.67;;;1.40;;
3757;SDS011;1894;51.038;13.692;2022-09-03T07:46:45;4.50;;;1.57;;
3757;SDS011;1894;51.038;13.692;2022-09-03T07:49:17;1.67;;;1.20;;
3757;SDS011;1894;51.038;13.692;2022-09-03T07:51:46;1.40;;;1.20;;
3757;SDS011;1894;51.038;13.692;2022-09-03T07:54:17;2.40;;;1.40;;
3757;SDS011;1894;51.038;13.692;2022-09-03T07:56:45;6.90;;;1.13;;
3757;SDS011;1894;51.038;13.692;2022-09-03T07:59:13;2.13;;;1.60;;
3757;SDS011;1894;51.038;13.692;2022-09-03T08:01:40;4.03;;;1.33;;
3757;SDS011;1894;51.038;13.692;2022-09-03T08:04:08;2.50;;;1.30;;
3757;SDS011;1894;51.038;13.692;2022-09-03T08:06:37;2.60;;;1.70;;
3757;SDS011;1894;51.038;13.692;2022-09-03T08:09:05;2.50;;;1.13;;
3757;SDS011;1894;51.038;13.692;2022-09-03T08:11:38;3.70;;;1.03;;
3757;SDS011;1894;51.038;13.692;2022-09-03T08:14:12;1.87;;;1.10;;
3757;SDS011;1894;51.038;13.692;2022-09-03T08:16:41;8.93;;;1.10;;
3757;SDS011;1894;51.038;13.692;2022-09-03T08:19:13;2.53;;;1.37;;
3757;SDS011;1894;51.038;13.692;2022-09-03T08:21:43;2.63;;;1.13;;
3757;SDS011;1894;51.038;13.692;2022-09-03T08:24:11;4.53;;;1.37;;
3757;SDS011;1894;51.038;13.692;2022-09-03T08:26:41;1.20;;;1.10;;
3757;SDS011;1894;51.038;13.692;2022-09-03T08:29:16;1.80;;;1.40;;
3757;SDS011;1894;51.038;13.692;2022-09-03T08:31:44;2.47;;;1.60;;
3757;SDS011;1894;51.038;13.692;2022-09-03T08:34:11;5.23;;;1.20;;
3757;SDS011;1894;51.038;13.692;2022-09-03T08:36:40;11.23;;;1.37;;
3757;SDS011;1894;51.038;13.692;2022-09-03T08:39:08;1.53;;;1.40;;
3757;SDS011;1894;51.038;13.692;2022-09-03T08:44:21;3.27;;;1.30;;
3757;SDS011;1894;51.038;13.692;2022-09-03T08:49:56;1.60;;;1.07;;
3757;SDS011;1894;51.038;13.692;2022-09-03T08:57:49;4.60;;;1.50;;
3757;SDS011;1894;51.038;13.692;2022-09-03T09:00:47;2.60;;;1.27;;
3757;SDS011;1894;51.038;13.692;2022-09-03T09:03:37;1.97;;;1.43;;
3757;SDS011;1894;51.038;13.692;2022-09-03T09:17:59;2.40;;;1.27;;
3757;SDS011;1894;51.038;13.692;2022-09-03T09:26:09;1.90;;;1.40;;
3757;SDS011;1894;51.038;13.692;2022-09-03T09:28:41;3.27;;;2.07;;
3757;SDS011;1894;51.038;13.692;2022-09-03T09:31:14;1.47;;;1.30;;
3757;SDS011;1894;51.038;13.692;2022-09-03T09:33:44;3.90;;;1.10;;
3757;SDS011;1894;51.038;13.692;2022-09-03T09:36:12;2.23;;;1.33;;
3757;SDS011;1894;51.038;13.692;2022-09-03T09:38:44;1.87;;;1.47;;
3757;SDS011;1894;51.038;13.692;2022-09-03T09:41:15;2.87;;;1.40;;
3757;SDS011;1894;51.038;13.692;2022-09-03T09:43:59;2.27;;;1.63;;
3757;SDS011;1894;51.038;13.692;2022-09-03T09:46:33;1.57;;;1.00;;
3757;SDS011;1894;51.038;13.692;2022-09-03T09:49:07;2.63;;;1.10;;
3757;SDS011;1894;51.038;13.692;2022-09-03T09:52:05;3.60;;;1.40;;
3757;SDS011;1894;51.038;13.692;2022-09-03T09:54:40;1.30;;;1.10;;
3757;SDS011;1894;51.038;13.692;2022-09-03T09:57:20;6.83;;;1.33;;
3757;SDS011;1894;51.038;13.692;2022-09-03T10:00:07;2.53;;;1.20;;
3757;SDS011;1894;51.038;13.692;2022-09-03T10:02:48;1.37;;;1.10;;
3757;SDS011;1894;51.038;13.692;2022-09-03T10:05:20;3.10;;;1.30;;
3757;SDS011;1894;51.038;13.692;2022-09-03T10:07:59;5.10;;;2.23;;
3757;SDS011;1894;51.038;13.692;2022-09-03T10:10:31;6.13;;;1.77;;
3757;SDS011;1894;51.038;13.692;2022-09-03T10:13:11;7.70;;;1.73;;
3757;SDS011;1894;51.038;13.692;2022-09-03T10:15:49;2.57;;;1.90;;
3757;SDS011;1894;51.038;13.692;2022-09-03T10:21:12;3.47;;;1.70;;
3757;SDS011;1894;51.038;13.692;2022-09-03T10:23:56;2.80;;;1.60;;
3757;SDS011;1894;51.038;13.692;2022-09-03T10:26:44;6.70;;;1.53;;
3757;SDS011;1894;51.038;13.692;2022-09-03T10:29:15;2.57;;;1.60;;
3757;SDS011;1894;51.038;13.692;2022-09-03T10:32:55;2.33;;;1.30;;
3757;SDS011;1894;51.038;13.692;2022-09-03T10:44:24;5.00;;;1.33;;
3757;SDS011;1894;51.038;13.692;2022-09-03T11:01:25;2.60;;;1.60;;
3757;SDS011;1894;51.038;13.692;2022-09-03T11:04:48;3.33;;;1.37;;
3757;SDS011;1894;51.038;13.692;2022-09-03T11:07:25;1.40;;;1.07;;
3757;SDS011;1894;51.038;13.692;2022-09-03T11:10:08;1.73;;;1.20;;
3757;SDS011;1894;51.038;13.692;2022-09-03T11:15:36;1.43;;;1.30;;
3757;SDS011;1894;51.038;13.692;2022-09-03T11:18:20;2.50;;;1.40;;
3757;SDS011;1894;51.038;13.692;2022-09-03T11:21:01;2.33;;;1.27;;
3757;SDS011;1894;51.038;13.692;2022-09-03T11:23:39;10.03;;;0.90;;
3757;SDS011;1894;51.038;13.692;2022-09-03T11:26:14;1.20;;;1.10;;
3757;SDS011;1894;51.038;13.692;2022-09-03T11:38:01;1.60;;;1.27;;
3757;SDS011;1894;51.038;13.692;2022-09-03T11:43:29;1.20;;;1.10;;
3757;SDS011;1894;51.038;13.692;2022-09-03T11:48:46;1.53;;;1.30;;
3757;SDS011;1894;51.038;13.692;2022-09-03T11:51:37;3.50;;;1.20;;
3757;SDS011;1894;51.038;13.692;2022-09-03T11:56:40;1.33;;;1.17;;
3757;SDS011;1894;51.038;13.692;2022-09-03T12:01:42;1.17;;;1.00;;
3757;SDS011;1894;51.038;13.692;2022-09-03T12:04:28;1.47;;;1.00;;
3757;SDS011;1894;51.038;13.692;2022-09-03T12:10:28;1.40;;;1.10;;
3757;SDS011;1894;51.038;13.692;2022-09-03T12:13:17;3.17;;;1.10;;
3757;SDS011;1894;51.038;13.692;2022-09-03T12:22:12;1.70;;;1.60;;
3757;SDS011;1894;51.038;13.692;2022-09-03T12:24:41;3.60;;;1.10;;
3757;SDS011;1894;51.038;13.692;2022-09-03T12:27:23;2.30;;;1.00;;
3757;SDS011;1894;51.038;13.692;2022-09-03T12:29:54;3.13;;;1.07;;
3757;SDS011;1894;51.038;13.692;2022-09-03T12:32:36;1.30;;;1.20;;
3757;SDS011;1894;51.038;13.692;2022-09-03T12:35:14;4.93;;;1.20;;
3757;SDS011;1894;51.038;13.692;2022-09-03T12:38:07;2.40;;;1.30;;
3757;SDS011;1894;51.038;13.692;2022-09-03T12:40:41;2.17;;;1.13;;
3757;SDS011;1894;51.038;13.692;2022-09-03T12:43:29;2.10;;;0.90;;
3757;SDS011;1894;51.038;13.692;2022-09-03T12:46:12;2.20;;;1.23;;
3757;SDS011;1894;51.038;13.692;2022-09-03T12:48:54;4.67;;;1.00;;
3757;SDS011;1894;51.038;13.692;2022-09-03T12:51:50;1.30;;;1.20;;
3757;SDS011;1894;51.038;13.692;2022-09-03T12:54:31;3.23;;;0.87;;
3757;SDS011;1894;51.038;13.692;2022-09-03T12:57:06;5.73;;;1.13;;
3757;SDS011;1894;51.038;13.692;2022-09-03T12:59:36;1.37;;;0.80;;
3757;SDS011;1894;51.038;13.692;2022-09-03T13:02:10;0.80;;;0.80;;
3757;SDS011;1894;51.038;13.692;2022-09-03T13:04:51;0.97;;;0.97;;
3757;SDS011;1894;51.038;13.692;2022-09-03T13:07:30;3.23;;;1.10;;
3757;SDS011;1894;51.038;13.692;2022-09-03T13:10:22;3.03;;;0.80;;
3757;SDS011;1894;51.038;13.692;2022-09-03T13:13:01;1.53;;;1.10;;
3757;SDS011;1894;51.038;13.692;2022-09-03T13:15:54;1.77;;;0.77;;
3757;SDS011;1894;51.038;13.692;2022-09-03T13:18:41;1.43;;;0.97;;
3757;SDS011;1894;51.038;13.692;2022-09-03T13:21:53;2.87;;;0.80;;
3757;SDS011;1894;51.038;13.692;2022-09-03T13:30:55;1.27;;;1.10;;
3757;SDS011;1894;51.038;13.692;2022-09-03T13:33:54;2.43;;;1.50;;
3757;SDS011;1894;51.038;13.692;2022-09-03T13:36:43;1.60;;;1.10;;
3757;SDS011;1894;51.038;13.692;2022-09-03T13:39:26;3.13;;;0.90;;
3757;SDS011;1894;51.038;13.692;2022-09-03T13:42:05;0.90;;;0.90;;
3757;SDS011;1894;51.038;13.692;2022-09-03T13:44:47;1.20;;;0.90;;
3757;SDS011;1894;51.038;13.692;2022-09-03T13:50:05;2.47;;;1.03;;
3757;SDS011;1894;51.038;13.692;2022-09-03T13:52:52;1.70;;;1.10;;
3757;SDS011;1894;51.038;13.692;2022-09-03T14:01:10;1.43;;;1.00;;
3757;SDS011;1894;51.038;13.692;2022-09-03T14:04:02;2.80;;;0.90;;
3757;SDS011;1894;51.038;13.692;2022-09-03T14:09:38;1.37;;;0.87;;
3757;SDS011;1894;51.038;13.692;2022-09-03T14:12:28;2.50;;;1.10;;
3757;SDS011;1894;51.038;13.692;2022-09-03T14:21:19;2.10;;;1.00;;
3757;SDS011;1894;51.038;13.692;2022-09-03T14:23:54;2.80;;;0.80;;
3757;SDS011;1894;51.038;13.692;2022-09-03T14:26:53;1.27;;;0.80;;
3757;SDS011;1894;51.038;13.692;2022-09-03T14:29:27;0.70;;;0.70;;
3757;SDS011;1894;51.038;13.692;2022-09-03T14:35:22;0.80;;;0.80;;
3757;SDS011;1894;51.038;13.692;2022-09-03T14:41:31;4.20;;;2.50;;
3757;SDS011;1894;51.038;13.692;2022-09-03T14:50:25;0.80;;;0.80;;
3757;SDS011;1894;51.038;13.692;2022-09-03T14:53:26;2.10;;;1.00;;
3757;SDS011;1894;51.038;13.692;2022-09-03T14:56:16;5.80;;;1.47;;
3757;SDS011;1894;51.038;13.692;2022-09-03T14:59:02;6.30;;;0.90;;
3757;SDS011;1894;51.038;13.692;2022-09-03T15:07:47;2.17;;;0.90;;
3757;SDS011;1894;51.038;13.692;2022-09-03T15:30:13;2.97;;;1.20;;
3757;SDS011;1894;51.038;13.692;2022-09-03T15:35:55;2.93;;;1.10;;
3757;SDS011;1894;51.038;13.692;2022-09-03T15:39:23;2.90;;;1.00;;
3757;SDS011;1894;51.038;13.692;2022-09-03T15:42:09;1.97;;;1.27;;
3757;SDS011;1894;51.038;13.692;2022-09-03T15:44:48;1.93;;;1.60;;
3757;SDS011;1894;51.038;13.692;2022-09-03T15:47:31;3.70;;;1.20;;
3757;SDS011;1894;51.038;13.692;2022-09-03T15:53:04;2.60;;;1.00;;
3757;SDS011;1894;51.038;13.692;2022-09-03T16:01:43;3.20;;;1.13;;
3757;SDS011;1894;51.038;13.692;2022-09-03T16:10:07;1.83;;;1.00;;
3757;SDS011;1894;51.038;13.692;2022-09-03T16:12:58;6.47;;;1.40;;
3757;SDS011;1894;51.038;13.692;2022-09-03T16:16:26;1.87;;;1.53;;
3757;SDS011;1894;51.038;13.692;2022-09-03T16:22:25;2.90;;;1.00;;
3757;SDS011;1894;51.038;13.692;2022-09-03T16:25:13;1.00;;;0.90;;
3757;SDS011;1894;51.038;13.692;2022-09-03T16:28:12;1.77;;;0.97;;
3757;SDS011;1894;51.038;13.692;2022-09-03T16:39:56;2.90;;;1.00;;
3757;SDS011;1894;51.038;13.692;2022-09-03T16:42:53;1.30;;;1.10;;
3757;SDS011;1894;51.038;13.692;2022-09-03T17:00:41;1.40;;;1.30;;
3757;SDS011;1894;51.038;13.692;2022-09-03T17:20:47;4.43;;;1.90;;
3757;SDS011;1894;51.038;13.692;2022-09-03T17:23:59;4.60;;;2.20;;
3757;SDS011;1894;51.038;13.692;2022-09-03T17:36:14;7.13;;;5.10;;
3757;SDS011;1894;51.038;13.692;2022-09-03T17:39:10;7.03;;;6.33;;
3757;SDS011;1894;51.038;13.692;2022-09-03T17:42:00;27.97;;;19.80;;
3757;SDS011;1894;51.038;13.692;2022-09-03T17:47:56;13.93;;;7.87;;
3757;SDS011;1894;51.038;13.692;2022-09-03T17:56:59;10.87;;;7.17;;
3757;SDS011;1894;51.038;13.692;2022-09-03T18:08:40;12.17;;;8.60;;
3757;SDS011;1894;51.038;13.692;2022-09-03T18:14:09;40.57;;;26.47;;
3757;SDS011;1894;51.038;13.692;2022-09-03T18:16:48;27.83;;;17.53;;
3757;SDS011;1894;51.038;13.692;2022-09-03T18:19:36;20.30;;;13.20;;
3757;SDS011;1894;51.038;13.692;2022-09-03T18:25:44;12.17;;;6.10;;
3757;SDS011;1894;51.038;13.692;2022-09-03T18:28:39;7.77;;;5.20;;
3757;SDS011;1894;51.038;13.692;2022-09-03T18:31:33;8.33;;;6.10;;
3757;SDS011;1894;51.038;13.692;2022-09-03T18:34:20;7.90;;;5.50;;
3757;SDS011;1894;51.038;13.692;2022-09-03T18:37:16;6.50;;;5.60;;
3757;SDS011;1894;51.038;13.692;2022-09-03T18:40:08;7.90;;;4.70;;
3757;SDS011;1894;51.038;13.692;2022-09-03T18:43:13;10.03;;;6.47;;
3757;SDS011;1894;51.038;13.692;2022-09-03T18:50:07;10.20;;;8.83;;
3757;SDS011;1894;51.038;13.692;2022-09-03T18:56:14;14.73;;;10.30;;
3757;SDS011;1894;51.038;13.692;2022-09-03T18:59:33;14.97;;;9.40;;
3757;SDS011;1894;51.038;13.692;2022-09-03T19:03:07;11.90;;;8.70;;
3757;SDS011;1894;51.038;13.692;2022-09-03T19:12:43;13.23;;;6.60;;
3757;SDS011;1894;51.038;13.692;2022-09-03T19:15:54;13.90;;;8.47;;
3757;SDS011;1894;51.038;13.692;2022-09-03T19:22:36;10.30;;;9.00;;
3757;SDS011;1894;51.038;13.692;2022-09-03T19:25:25;13.33;;;9.33;;
3757;SDS011;1894;51.038;13.692;2022-09-03T19:31:15;12.77;;;8.00;;
3757;SDS011;1894;51.038;13.692;2022-09-03T19:43:57;11.90;;;8.93;;
3757;SDS011;1894;51.038;13.692;2022-09-03T19:46:59;14.17;;;10.30;;
3757;SDS011;1894;51.038;13.692;2022-09-03T19:53:14;13.90;;;11.00;;
3757;SDS011;1894;51.038;13.692;2022-09-03T19:56:22;12.87;;;9.77;;
3757;SDS011;1894;51.038;13.692;2022-09-03T19:59:15;20.37;;;10.73;;
3757;SDS011;1894;51.038;13.692;2022-09-03T20:02:04;12.10;;;9.40;;
3757;SDS011;1894;51.038;13.692;2022-09-03T20:04:52;12.40;;;8.27;;
3757;SDS011;1894;51.038;13.692;2022-09-03T20:07:44;16.57;;;9.67;;
3757;SDS011;1894;51.038;13.692;2022-09-03T20:10:33;12.40;;;9.70;;
3757;SDS011;1894;51.038;13.692;2022-09-03T20:13:14;20.53;;;10.43;;
3757;SDS011;1894;51.038;13.692;2022-09-03T20:18:40;12.17;;;8.93;;
3757;SDS011;1894;51.038;13.692;2022-09-03T20:21:34;12.30;;;9.13;;
3757;SDS011;1894;51.038;13.692;2022-09-03T20:30:26;9.27;;;6.53;;
3757;SDS011;1894;51.038;13.692;2022-09-03T20:45:34;11.33;;;8.30;;
3757;SDS011;1894;51.038;13.692;2022-09-03T20:48:34;10.47;;;7.83;;
3757;SDS011;1894;51.038;13.692;2022-09-03T20:51:39;11.80;;;9.57;;
3757;SDS011;1894;51.038;13.692;2022-09-03T21:00:07;15.53;;;12.03;;
3757;SDS011;1894;51.038;13.692;2022-09-03T21:05:57;20.83;;;8.63;;
3757;SDS011;1894;51.038;13.692;2022-09-03T21:08:58;14.47;;;8.20;;
3757;SDS011;1894;51.038;13.692;2022-09-03T21:12:17;13.40;;;8.10;;
3757;SDS011;1894;51.038;13.692;2022-09-03T21:14:53;11.07;;;8.70;;
3757;SDS011;1894;51.038;13.692;2022-09-03T21:17:48;23.63;;;10.87;;
3757;SDS011;1894;51.038;13.692;2022-09-03T21:20:50;12.23;;;7.30;;
3757;SDS011;1894;51.038;13.692;2022-09-03T21:23:42;10.17;;;7.67;;
3757;SDS011;1894;51.038;13.692;2022-09-03T21:26:24;10.83;;;8.20;;
3757;SDS011;1894;51.038;13.692;2022-09-03T21:29:06;11.40;;;8.40;;
3757;SDS011;1894;51.038;13.692;2022-09-03T21:31:53;9.97;;;8.30;;
3757;SDS011;1894;51.038;13.692;2022-09-03T21:34:29;11.40;;;8.13;;
3757;SDS011;1894;51.038;13.692;2022-09-03T21:37:04;8.50;;;7.03;;
3757;SDS011;1894;51.038;13.692;2022-09-03T21:39:41;10.10;;;7.27;;
3757;SDS011;1894;51.038;13.692;2022-09-03T21:47:57;11.50;;;7.23;;
3757;SDS011;1894;51.038;13.692;2022-09-03T21:50:40;14.73;;;7.60;;
3757;SDS011;1894;51.038;13.692;2022-09-03T21:53:24;12.17;;;7.20;;
3757;SDS011;1894;51.038;13.692;2022-09-03T22:01:30;9.77;;;7.30;;
3757;SDS011;1894;51.038;13.692;2022-09-03T22:04:11;14.27;;;7.40;;
3757;SDS011;1894;51.038;13.692;2022-09-03T22:12:37;10.87;;;9.00;;
3757;SDS011;1894;51.038;13.692;2022-09-03T22:15:17;8.00;;;5.67;;
3757;SDS011;1894;51.038;13.692;2022-09-03T22:17:47;11.13;;;8.37;;
3757;SDS011;1894;51.038;13.692;2022-09-03T22:21:07;11.90;;;8.50;;
3757;SDS011;1894;51.038;13.692;2022-09-03T22:47:44;17.50;;;13.33;;
3757;SDS011;1894;51.038;13.692;2022-09-03T22:50:58;11.37;;;9.40;;